Time;durP1;ratioP1;P1;durP2;ratioP2;P2;SDS_P1;SDS_P2;PMS_P1;PMS_P2;Temp;Humidity;BMP_temperature;BMP_pressure;BME280_temperature;BME280_humidity;BME280_pressure;Samples;Min_cycle;Max_cycle;Signal;HPM_P1;HPM_P2
2021/10/05 00:02:21;;;;;;;;;;;;;;;19.84;65.59;100015.22;7289915;19;152663;-52
2021/10/05 00:04:48;;;;;;;;;;;;;;;19.84;65.73;100020.00;7288610;19;154354;-52
2021/10/05 00:07:15;;;;;;;;;;;;;;;19.83;65.44;100007.97;7289698;19;152058;-53
2021/10/05 00:09:42;;;;;;;;;;;;;;;19.84;65.95;100005.97;7287738;19;152829;-53
2021/10/05 00:12:09;;;;;;;;;;;;;;;19.83;65.88;99993.94;7283282;19;152577;-52
2021/10/05 00:14:36;;;;;;;;;;;;;;;19.85;65.54;99990.81;7286840;19;152481;-52
2021/10/05 00:17:04;;;;;;;;;;;;;;;19.83;65.89;99993.94;7288040;19;152659;-52
2021/10/05 00:19:31;;;;;;;;;;;;;;;19.82;65.66;99986.69;7294274;19;153488;-52
2021/10/05 00:21:58;;;;;;;;;;;;;;;19.82;65.98;99983.88;7289136;19;153542;-52
2021/10/05 00:24:25;;;;;;;;;;;;;;;19.84;65.86;99966.75;7286714;19;152124;-52
2021/10/05 00:26:52;;;;;;;;;;;;;;;19.84;66.04;99959.16;7287791;19;151983;-52
2021/10/05 00:29:19;;;;;;;;;;;;;;;19.83;66.01;99946.28;7287695;19;152912;-52
2021/10/05 00:31:45;;;;;;;;;;;;;;;19.83;66.01;99951.06;7288037;19;153610;-52
2021/10/05 00:34:12;;;;;;;;;;;;;;;19.83;66.13;99946.28;7289744;19;151618;-52
2021/10/05 00:36:39;;;;;;;;;;;;;;;19.85;65.68;99949.56;7288639;19;151802;-51
2021/10/05 00:39:06;;;;;;;;;;;;;;;19.83;65.77;99949.09;7286618;19;152154;-52
2021/10/05 00:41:34;;;;;;;;;;;;;;;19.83;66.28;99945.47;7296875;19;151734;-53
2021/10/05 00:44:01;;;;;;;;;;;;;;;19.83;65.89;99940.69;7285711;19;153270;-52
2021/10/05 00:46:29;;;;;;;;;;;;;;;19.83;66.24;99929.47;7289105;19;152112;-52
2021/10/05 00:48:56;;;;;;;;;;;;;;;19.82;66.28;99927.81;7287594;19;152852;-52
2021/10/05 00:51:23;;;;;;;;;;;;;;;19.83;66.39;99926.66;7285749;19;154153;-52
2021/10/05 00:53:51;;;;;;;;;;;;;;;19.82;66.25;99925.00;7287248;19;152100;-52
2021/10/05 00:56:19;;;;;;;;;;;;;;;19.83;66.44;99920.22;7286702;19;152614;-52
2021/10/05 00:58:46;;;;;;;;;;;;;;;19.82;66.62;99908.19;7287139;19;153342;-52
2021/10/05 01:01:13;;;;;;;;;;;;;;;19.83;66.77;99895.84;7286339;19;151829;-52
2021/10/05 01:03:40;;;;;;;;;;;;;;;19.81;66.56;99886.91;7294171;19;152085;-52
2021/10/05 01:06:07;;;;;;;;;;;;;;;19.82;66.95;99879.34;7288963;19;152033;-52
2021/10/05 01:08:34;;;;;;;;;;;;;;;19.81;66.95;99878.50;7288259;19;152255;-52
2021/10/05 01:11:01;;;;;;;;;;;;;;;19.82;66.98;99870.94;7284022;19;152594;-52
2021/10/05 01:13:28;;;;;;;;;;;;;;;19.80;66.96;99871.28;7284391;19;152270;-52
2021/10/05 01:15:55;;;;;;;;;;;;;;;19.81;66.96;99875.72;7285622;19;151979;-52
2021/10/05 01:18:22;;;;;;;;;;;;;;;19.82;66.71;99865.31;7284734;19;153465;-52
2021/10/05 01:20:51;;;;;;;;;;;;;;;19.82;67.08;99852.13;7288148;19;151794;-52
2021/10/05 01:23:18;;;;;;;;;;;;;;;19.81;67.13;99846.84;7291769;19;151566;-52
2021/10/05 01:25:45;;;;;;;;;;;;;;;19.81;67.33;99838.44;7285962;19;151887;-52
2021/10/05 01:28:13;;;;;;;;;;;;;;;19.79;67.29;99813.56;7287316;19;151912;-52
2021/10/05 01:30:40;;;;;;;;;;;;;;;19.80;67.62;99837.66;7286378;19;153832;-52
2021/10/05 01:33:07;;;;;;;;;;;;;;;19.79;67.89;99832.34;7287402;19;151807;-52
2021/10/05 01:35:35;;;;;;;;;;;;;;;19.78;67.85;99825.94;7285760;19;151623;-52
2021/10/05 01:38:03;;;;;;;;;;;;;;;19.80;67.81;99815.22;7285042;19;153763;-53
2021/10/05 01:40:30;;;;;;;;;;;;;;;19.79;67.97;99801.53;7287680;19;151770;-53
2021/10/05 01:42:57;;;;;;;;;;;;;;;19.77;67.69;99790.63;7285374;19;151984;-52
2021/10/05 01:45:24;;;;;;;;;;;;;;;19.78;68.22;99785.84;7291931;19;153405;-52
2021/10/05 01:47:51;;;;;;;;;;;;;;;19.78;67.92;99783.88;7286967;19;153333;-52
2021/10/05 01:50:18;;;;;;;;;;;;;;;19.78;68.25;99769.03;7284526;19;152897;-52
2021/10/05 01:52:45;;;;;;;;;;;;;;;19.76;67.91;99741.34;7285389;19;151606;-52
2021/10/05 01:55:13;;;;;;;;;;;;;;;19.79;68.37;99737.88;7287747;19;153193;-53
2021/10/05 01:57:39;;;;;;;;;;;;;;;19.79;68.16;99735.09;7284963;19;152092;-53
2021/10/05 02:00:07;;;;;;;;;;;;;;;19.81;68.44;99724.34;7286861;19;151608;-52
2021/10/05 02:02:34;;;;;;;;;;;;;;;19.85;68.36;99725.31;7285705;19;152733;-52
2021/10/05 02:05:02;;;;;;;;;;;;;;;19.80;68.46;99705.91;7282660;19;152494;-53
2021/10/05 02:07:29;;;;;;;;;;;;;;;19.79;68.44;99701.47;7294967;19;151907;-53
2021/10/05 02:09:56;;;;;;;;;;;;;;;19.80;68.58;99705.09;7284913;19;152260;-52
2021/10/05 02:12:23;;;;;;;;;;;;;;;19.78;68.53;99693.38;7285389;19;152198;-53
2021/10/05 02:14:50;;;;;;;;;;;;;;;19.79;68.70;99687.44;7284611;19;152578;-52
2021/10/05 02:17:17;;;;;;;;;;;;;;;19.76;68.89;99682.47;7285555;19;153487;-53
2021/10/05 02:19:44;;;;;;;;;;;;;;;19.82;68.77;99692.38;7284750;19;151760;-52
2021/10/05 02:22:11;;;;;;;;;;;;;;;19.78;69.10;99673.75;7286022;19;152020;-52
2021/10/05 02:24:41;;;;;;;;;;;;;;;19.78;68.48;99659.75;7280631;19;153878;-53
2021/10/05 02:27:09;;;;;;;;;;;;;;;19.77;68.80;99663.69;7284633;19;152104;-52
2021/10/05 02:29:36;;;;;;;;;;;;;;;19.75;68.85;99672.47;7291862;19;152919;-52
2021/10/05 02:32:04;;;;;;;;;;;;;;;19.74;69.01;99687.63;7285932;19;152180;-52
2021/10/05 02:34:31;;;;;;;;;;;;;;;19.76;69.06;99712.50;7284741;19;153018;-52
2021/10/05 02:36:58;;;;;;;;;;;;;;;19.74;69.14;99696.03;7283397;19;153684;-52
2021/10/05 02:39:26;;;;;;;;;;;;;;;19.79;68.69;99715.47;7285751;19;151966;-52
2021/10/05 02:41:53;;;;;;;;;;;;;;;19.74;69.20;99724.06;7284423;19;153692;-53
2021/10/05 02:44:20;;;;;;;;;;;;;;;19.73;69.28;99694.38;7283477;19;153984;-51
2021/10/05 02:46:47;;;;;;;;;;;;;;;19.72;69.36;99698.31;7283331;19;151675;-52
2021/10/05 02:49:14;;;;;;;;;;;;;;;19.70;69.57;99706.25;7285613;19;153253;-52
2021/10/05 02:51:41;;;;;;;;;;;;;;;19.70;69.61;99697.84;7289718;19;153485;-52
2021/10/05 02:54:08;;;;;;;;;;;;;;;19.72;69.41;99659.09;7285671;19;153294;-52
2021/10/05 02:56:35;;;;;;;;;;;;;;;19.70;69.05;99638.19;7284685;19;153944;-52
2021/10/05 02:59:02;;;;;;;;;;;;;;;19.69;69.18;99685.00;7285566;19;152373;-52
2021/10/05 03:01:29;;;;;;;;;;;;;;;19.69;69.37;99656.16;7280153;19;153882;-52
2021/10/05 03:03:57;;;;;;;;;;;;;;;19.69;69.41;99650.53;7279632;19;152740;-52
2021/10/05 03:06:24;;;;;;;;;;;;;;;19.68;68.84;99651.69;7282741;19;153551;-52
2021/10/05 03:08:54;;;;;;;;;;;;;;;19.68;69.06;99644.09;7286021;19;153838;-52
2021/10/05 03:11:21;;;;;;;;;;;;;;;19.68;69.25;99635.69;7282870;19;152250;-53
2021/10/05 03:13:48;;;;;;;;;;;;;;;19.67;69.32;99616.44;7286669;19;152403;-52
2021/10/05 03:16:15;;;;;;;;;;;;;;;19.66;69.52;99620.41;7279899;19;153376;-52
2021/10/05 03:18:43;;;;;;;;;;;;;;;19.65;69.18;99618.75;7285020;19;151471;-53
2021/10/05 03:21:11;;;;;;;;;;;;;;;19.64;69.12;99609.50;7284717;19;152887;-52
2021/10/05 03:23:39;;;;;;;;;;;;;;;19.64;69.20;99577.88;7284958;19;153540;-52
2021/10/05 03:26:06;;;;;;;;;;;;;;;19.62;69.21;99569.81;7282452;19;152300;-52
2021/10/05 03:28:33;;;;;;;;;;;;;;;19.63;69.52;99568.63;7285084;19;151837;-52
2021/10/05 03:30:59;;;;;;;;;;;;;;;19.66;69.51;99589.56;7283273;19;152848;-52
2021/10/05 03:33:26;;;;;;;;;;;;;;;19.64;69.29;99573.09;7291445;19;151890;-52
2021/10/05 03:35:53;;;;;;;;;;;;;;;19.63;69.55;99619.06;7281302;19;154052;-52
2021/10/05 03:38:22;;;;;;;;;;;;;;;19.64;69.64;99620.72;7281652;19;151588;-52
2021/10/05 03:40:49;;;;;;;;;;;;;;;19.61;69.43;99624.19;7284655;19;152802;-52
2021/10/05 03:43:16;;;;;;;;;;;;;;;19.61;69.60;99629.81;7283676;19;153251;-52
2021/10/05 03:45:43;;;;;;;;;;;;;;;19.60;69.56;99616.94;7281223;19;151566;-52
2021/10/05 03:48:12;;;;;;;;;;;;;;;19.60;69.08;99616.13;7284012;19;152243;-52
2021/10/05 03:50:39;;;;;;;;;;;;;;;19.59;69.10;99612.50;7282916;19;153218;-52
2021/10/05 03:53:06;;;;;;;;;;;;;;;19.60;69.16;99585.31;7283846;19;151662;-52
2021/10/05 03:55:34;;;;;;;;;;;;;;;19.58;69.35;99607.25;7290858;19;152720;-52
2021/10/05 03:58:01;;;;;;;;;;;;;;;19.58;69.41;99587.63;7283642;19;152323;-52
2021/10/05 04:00:28;;;;;;;;;;;;;;;19.57;69.42;99592.41;7281316;19;153575;-52
2021/10/05 04:02:56;;;;;;;;;;;;;;;19.57;69.68;99595.22;7283533;19;152267;-53
2021/10/05 04:05:24;;;;;;;;;;;;;;;19.57;69.32;99585.97;7281020;19;151920;-52
2021/10/05 04:07:51;;;;;;;;;;;;;;;19.56;69.27;99573.13;7284014;19;153103;-52
2021/10/05 04:10:18;;;;;;;;;;;;;;;19.57;69.80;99564.41;7278736;19;153799;-53
2021/10/05 04:12:45;;;;;;;;;;;;;;;19.57;69.82;99574.78;7282566;19;152231;-52
2021/10/05 04:15:12;;;;;;;;;;;;;;;19.55;69.68;99589.09;7276344;19;152723;-52
2021/10/05 04:17:39;;;;;;;;;;;;;;;19.56;69.97;99581.53;7287010;19;152120;-52
2021/10/05 04:20:07;;;;;;;;;;;;;;;19.56;70.31;99593.56;7282984;19;151996;-52
2021/10/05 04:22:34;;;;;;;;;;;;;;;19.55;70.05;99566.69;7281848;19;153598;-52
2021/10/05 04:25:01;;;;;;;;;;;;;;;19.54;70.18;99599.50;7281749;19;151912;-52
2021/10/05 04:27:28;;;;;;;;;;;;;;;19.54;69.79;99607.88;7280838;19;153701;-52
2021/10/05 04:29:55;;;;;;;;;;;;;;;19.53;69.92;99575.44;7280514;19;154384;-52
2021/10/05 04:32:22;;;;;;;;;;;;;;;19.53;70.22;99560.63;7287592;19;152248;-52
2021/10/05 04:34:49;;;;;;;;;;;;;;;19.53;70.17;99569.81;7287855;19;152756;-53
2021/10/05 04:37:16;;;;;;;;;;;;;;;19.52;70.20;99570.19;7287467;19;154096;-52
2021/10/05 04:39:43;;;;;;;;;;;;;;;19.53;70.51;99569.03;7296237;19;151669;-53
2021/10/05 04:42:10;;;;;;;;;;;;;;;19.53;70.33;99572.63;7286396;19;153537;-52
2021/10/05 04:44:37;;;;;;;;;;;;;;;19.51;70.50;99568.53;7287779;19;152235;-52
2021/10/05 04:47:04;;;;;;;;;;;;;;;19.51;70.37;99588.97;7289114;19;152707;-52
2021/10/05 04:49:31;;;;;;;;;;;;;;;19.52;70.51;99587.00;7286937;19;154286;-52
2021/10/05 04:51:58;;;;;;;;;;;;;;;19.51;70.37;99585.34;7289108;19;151822;-52
2021/10/05 04:54:25;;;;;;;;;;;;;;;19.50;70.58;99578.91;7287439;19;153474;-53
2021/10/05 04:56:52;;;;;;;;;;;;;;;19.52;70.57;99592.59;7286254;19;153338;-52
2021/10/05 04:59:19;;;;;;;;;;;;;;;19.52;70.95;99589.78;7288624;19;151772;-52
2021/10/05 05:01:46;;;;;;;;;;;;;;;19.50;71.03;99584.50;7290981;19;153177;-52
2021/10/05 05:04:13;;;;;;;;;;;;;;;19.49;70.67;99594.06;7289847;19;152030;-52
2021/10/05 05:06:40;;;;;;;;;;;;;;;19.49;70.71;99594.06;7287838;19;153009;-52
2021/10/05 05:09:07;;;;;;;;;;;;;;;19.50;70.78;99583.69;7287113;19;153227;-52
2021/10/05 05:11:34;;;;;;;;;;;;;;;19.50;70.63;99584.50;7287903;19;151813;-52
2021/10/05 05:14:07;;;;;;;;;;;;;;;19.50;70.78;99583.69;7288231;19;153199;-52
2021/10/05 05:16:35;;;;;;;;;;;;;;;19.49;71.27;99584.84;7280916;19;152426;-52
2021/10/05 05:19:03;;;;;;;;;;;;;;;19.49;71.25;99587.63;7285397;19;151782;-52
2021/10/05 05:21:30;;;;;;;;;;;;;;;19.48;70.66;99574.81;7286501;19;153070;-52
2021/10/05 05:23:57;;;;;;;;;;;;;;;19.49;70.72;99576.44;7293877;19;152343;-52
2021/10/05 05:26:24;;;;;;;;;;;;;;;19.47;70.93;99579.59;7285213;19;153541;-52
2021/10/05 05:28:51;;;;;;;;;;;;;;;19.47;70.80;99573.97;7286012;19;151801;-52
2021/10/05 05:31:18;;;;;;;;;;;;;;;19.49;70.50;99570.81;7284907;19;151705;-51
2021/10/05 05:33:45;;;;;;;;;;;;;;;19.55;70.76;99575.09;7287569;19;151887;-52
2021/10/05 05:36:12;;;;;;;;;;;;;;;19.60;70.70;99574.09;7284164;19;152538;-52
2021/10/05 05:38:39;;;;;;;;;;;;;;;19.67;71.04;99564.00;7287340;19;151760;-52
2021/10/05 05:41:07;;;;;;;;;;;;;;;19.70;70.89;99563.34;7287871;19;152302;-52
2021/10/05 05:43:34;;;;;;;;;;;;;;;19.74;71.71;99569.09;7289955;19;153856;-52
2021/10/05 05:46:01;;;;;;;;;;;;;;;19.77;71.62;99566.44;7283080;19;152623;-52
2021/10/05 05:48:28;;;;;;;;;;;;;;;19.82;72.01;99563.44;7286405;19;154574;-52
2021/10/05 05:50:55;;;;;;;;;;;;;;;19.86;72.58;99572.81;7286212;19;152174;-52
2021/10/05 05:53:21;;;;;;;;;;;;;;;19.92;72.88;99576.25;7286600;19;153254;-52
2021/10/05 05:55:49;;;;;;;;;;;;;;;19.98;72.72;99589.75;7285371;19;152876;-51
2021/10/05 05:58:17;;;;;;;;;;;;;;;20.05;73.05;99585.59;7284202;19;152011;-52
2021/10/05 06:00:44;;;;;;;;;;;;;;;20.11;72.57;99590.66;7283400;19;152664;-52
2021/10/05 06:03:12;;;;;;;;;;;;;;;20.17;72.44;99591.31;7283569;19;153982;-53
2021/10/05 06:05:39;;;;;;;;;;;;;;;20.23;72.39;99581.50;7291116;19;152286;-52
2021/10/05 06:08:07;;;;;;;;;;;;;;;20.30;72.08;99588.28;7286278;19;153909;-52
2021/10/05 06:10:34;;;;;;;;;;;;;;;20.37;71.97;99584.91;7286656;19;151964;-52
2021/10/05 06:13:01;;;;;;;;;;;;;;;20.42;71.89;99593.97;7285332;19;153546;-53
2021/10/05 06:15:28;;;;;;;;;;;;;;;20.50;71.32;99597.84;7282130;19;152618;-52
2021/10/05 06:17:55;;;;;;;;;;;;;;;20.56;71.83;99592.88;7281347;19;152213;-53
2021/10/05 06:20:24;;;;;;;;;;;;;;;20.62;71.94;99592.34;7286450;19;152582;-52
2021/10/05 06:22:51;;;;;;;;;;;;;;;20.74;71.02;99602.81;7285897;19;153587;-52
2021/10/05 06:25:22;;;;;;;;;;;;;;;20.80;70.72;99613.47;7284828;19;151901;-53
2021/10/05 06:27:50;;;;;;;;;;;;;;;20.88;69.23;99610.94;7294170;19;152876;-52
2021/10/05 06:30:18;;;;;;;;;;;;;;;20.96;68.34;99618.47;7287403;19;152067;-52
2021/10/05 06:32:53;;;;;;;;;;;;;;;21.03;66.98;99613.13;7287484;19;152732;-52
2021/10/05 06:35:23;;;;;;;;;;;;;;;21.10;66.31;99619.00;7284217;19;153891;-51
2021/10/05 06:37:53;;;;;;;;;;;;;;;21.14;66.42;99608.75;7284204;19;151600;-52
2021/10/05 06:40:22;;;;;;;;;;;;;;;21.19;65.78;99622.59;7284718;19;152886;-52
2021/10/05 06:42:49;;;;;;;;;;;;;;;21.24;66.12;99628.00;7282915;19;153996;-52
2021/10/05 06:45:17;;;;;;;;;;;;;;;21.38;65.48;99636.94;7284154;19;151896;-52
2021/10/05 06:47:45;;;;;;;;;;;;;;;21.22;63.46;99630.31;7283371;19;152793;-53
2021/10/05 06:50:12;;;;;;;;;;;;;;;21.30;62.86;99623.81;7290370;19;153957;-52
2021/10/05 06:52:39;;;;;;;;;;;;;;;21.34;62.84;99619.13;7286349;19;152851;-52
2021/10/05 06:55:06;;;;;;;;;;;;;;;21.39;62.68;99630.16;7281623;19;153946;-52
2021/10/05 06:57:33;;;;;;;;;;;;;;;21.42;62.95;99640.69;7284749;19;152316;-52
2021/10/05 07:00:00;;;;;;;;;;;;;;;21.46;62.80;99644.44;7282478;19;152324;-52
2021/10/05 07:02:27;;;;;;;;;;;;;;;21.48;62.51;99642.13;7284005;19;153299;-52
2021/10/05 07:04:54;;;;;;;;;;;;;;;21.50;62.47;99648.22;7285262;19;151716;-52
2021/10/05 07:07:22;;;;;;;;;;;;;;;21.52;62.44;99647.88;7283575;19;153048;-52
2021/10/05 07:09:48;;;;;;;;;;;;;;;21.54;62.19;99651.13;7284775;19;153270;-52
2021/10/05 07:12:15;;;;;;;;;;;;;;;21.56;61.93;99660.06;7292354;19;151951;-52
2021/10/05 07:14:42;;;;;;;;;;;;;;;21.57;61.97;99653.28;7283218;19;152485;-52
2021/10/05 07:17:09;;;;;;;;;;;;;;;21.59;62.22;99657.38;7281806;19;152259;-52
2021/10/05 07:19:45;;;;;;;;;;;;;;;21.48;57.86;99656.19;7280813;19;152691;-52
2021/10/05 07:22:12;;;;;;;;;;;;;;;21.13;57.21;99652.03;7283153;19;154247;-52
2021/10/05 07:24:39;;;;;;;;;;;;;;;20.95;56.52;99664.56;7284787;19;151868;-51
2021/10/05 07:27:06;;;;;;;;;;;;;;;20.67;56.69;99667.88;7281331;19;152926;-54
2021/10/05 07:29:33;;;;;;;;;;;;;;;20.64;56.73;99664.94;7282215;19;153740;-51
2021/10/05 07:32:00;;;;;;;;;;;;;;;20.73;57.15;99671.31;7289405;19;152068;-52
2021/10/05 07:34:27;;;;;;;;;;;;;;;20.77;57.53;99669.47;7284271;19;153653;-52
2021/10/05 07:36:54;;;;;;;;;;;;;;;20.68;56.20;99677.13;7284460;19;151739;-52
2021/10/05 07:39:21;;;;;;;;;;;;;;;20.69;57.16;99671.19;7284954;19;152865;-52
2021/10/05 07:41:48;;;;;;;;;;;;;;;20.81;58.58;99668.44;7282725;19;153733;-52
2021/10/05 07:44:15;;;;;;;;;;;;;;;20.91;58.57;99669.22;7283602;19;151944;-52
2021/10/05 07:46:43;;;;;;;;;;;;;;;20.95;59.00;99672.97;7281902;19;152656;-51
2021/10/05 07:49:10;;;;;;;;;;;;;;;20.97;58.42;99677.09;7279019;19;153495;-52
2021/10/05 07:51:37;;;;;;;;;;;;;;;21.01;58.87;99674.41;7283064;19;151829;-52
2021/10/05 07:54:05;;;;;;;;;;;;;;;21.02;58.82;99678.88;7288821;19;153082;-52
2021/10/05 07:56:32;;;;;;;;;;;;;;;21.03;59.26;99675.72;7282175;19;151800;-52
2021/10/05 07:58:59;;;;;;;;;;;;;;;21.05;59.39;99678.19;7283858;19;153555;-52
2021/10/05 08:01:26;;;;;;;;;;;;;;;21.07;59.16;99681.47;7276699;19;153761;-51
2021/10/05 08:03:56;;;;;;;;;;;;;;;21.07;59.58;99687.09;7283136;19;152372;-51
2021/10/05 08:06:23;;;;;;;;;;;;;;;21.09;59.27;99687.56;7282366;19;153529;-52
2021/10/05 08:08:51;;;;;;;;;;;;;;;21.09;59.60;99688.38;7287367;19;154237;-51
2021/10/05 08:11:19;;;;;;;;;;;;;;;21.10;59.30;99694.84;7289518;19;152368;-52
2021/10/05 08:13:47;;;;;;;;;;;;;;;21.09;59.35;99688.38;7289684;19;152670;-52
2021/10/05 08:16:20;;;;;;;;;;;;;;;21.09;59.45;99690.38;7294495;19;153868;-52
2021/10/05 08:18:47;;;;;;;;;;;;;;;21.08;59.37;99683.09;7287029;19;152884;-52
2021/10/05 08:21:16;;;;;;;;;;;;;;;21.07;59.27;99687.09;7287010;19;152214;-52
2021/10/05 08:23:52;;;;;;;;;;;;;;;21.08;59.03;99688.72;7289948;19;152123;-52
2021/10/05 08:26:21;;;;;;;;;;;;;;;21.06;59.13;99685.44;7286200;19;153885;-52
2021/10/05 08:28:48;;;;;;;;;;;;;;;21.03;59.10;99688.97;7285923;19;152622;-51
2021/10/05 08:31:18;;;;;;;;;;;;;;;21.02;58.98;99690.13;7288787;19;151586;-52
2021/10/05 08:33:46;;;;;;;;;;;;;;;21.05;59.31;99695.03;7287945;19;154334;-52
2021/10/05 08:36:14;;;;;;;;;;;;;;;21.03;59.16;99689.75;7286030;19;152196;-52
2021/10/05 08:38:41;;;;;;;;;;;;;;;21.05;59.46;99686.59;7293447;19;153403;-52
2021/10/05 08:41:08;;;;;;;;;;;;;;;21.06;59.15;99693.88;7287509;19;153229;-52
2021/10/05 08:43:35;;;;;;;;;;;;;;;21.05;59.11;99692.22;7289365;19;151693;-52
2021/10/05 08:46:05;;;;;;;;;;;;;;;21.02;58.80;99684.50;7288005;19;152795;-52
2021/10/05 08:48:33;;;;;;;;;;;;;;;20.96;58.95;99699.91;7285000;19;154027;-52
2021/10/05 08:51:01;;;;;;;;;;;;;;;20.96;58.83;99697.09;7287238;19;152016;-52
2021/10/05 08:53:30;;;;;;;;;;;;;;;20.91;59.26;99700.91;7288828;19;153397;-52
2021/10/05 08:55:58;;;;;;;;;;;;;;;20.88;59.49;99707.22;7286343;19;153802;-52
2021/10/05 08:58:25;;;;;;;;;;;;;;;20.83;59.36;99691.41;7289211;19;151830;-52
2021/10/05 09:00:53;;;;;;;;;;;;;;;20.84;59.10;99695.88;7293645;19;154794;-52
2021/10/05 09:03:21;;;;;;;;;;;;;;;20.81;59.57;99690.91;7286152;19;152008;-52
2021/10/05 09:05:49;;;;;;;;;;;;;;;20.80;59.26;99686.44;7288322;19;152874;-52
2021/10/05 09:08:19;;;;;;;;;;;;;;;20.76;59.32;99701.50;7287250;19;153607;-52
2021/10/05 09:10:46;;;;;;;;;;;;;;;20.74;59.64;99704.69;7287364;19;152514;-52
2021/10/05 09:13:13;;;;;;;;;;;;;;;20.71;59.82;99699.75;7288314;19;153330;-52
2021/10/05 09:15:40;;;;;;;;;;;;;;;20.74;59.42;99712.28;7286908;19;153393;-52
2021/10/05 09:18:08;;;;;;;;;;;;;;;20.73;59.58;99708.63;7284548;19;152016;-52
2021/10/05 09:20:35;;;;;;;;;;;;;;;20.74;59.34;99709.47;7281970;19;152493;-52
2021/10/05 09:23:03;;;;;;;;;;;;;;;20.72;59.98;99715.41;7292740;19;153865;-52
2021/10/05 09:25:32;;;;;;;;;;;;;;;20.72;59.79;99715.41;7288055;19;153274;-52
2021/10/05 09:28:01;;;;;;;;;;;;;;;20.72;59.56;99714.59;7282501;19;154410;-52
2021/10/05 09:30:28;;;;;;;;;;;;;;;20.71;59.47;99724.19;7288870;19;151720;-51
2021/10/05 09:32:57;;;;;;;;;;;;;;;20.67;59.57;99726.81;7285729;19;153450;-52
2021/10/05 09:35:24;;;;;;;;;;;;;;;20.65;59.71;99725.53;7287307;19;153500;-52
2021/10/05 09:37:53;;;;;;;;;;;;;;;20.60;59.42;99725.72;7288320;19;151792;-52
2021/10/05 09:40:21;;;;;;;;;;;;;;;20.62;59.56;99727.06;7286413;19;151859;-52
2021/10/05 09:42:50;;;;;;;;;;;;;;;20.60;59.58;99732.16;7291864;19;152585;-52
2021/10/05 09:45:21;;;;;;;;;;;;;;;20.58;59.84;99728.84;7287688;19;152663;-52
2021/10/05 09:47:51;;;;;;;;;;;;;;;20.59;59.74;99726.88;7283212;19;153062;-52
2021/10/05 09:50:21;;;;;;;;;;;;;;;20.59;59.64;99738.94;7285501;19;153062;-52
2021/10/05 09:52:49;;;;;;;;;;;;;;;20.55;59.69;99734.34;7287398;19;151619;-52
2021/10/05 09:55:17;;;;;;;;;;;;;;;20.54;59.70;99753.16;7283588;19;154107;-52
2021/10/05 09:57:44;;;;;;;;;;;;;;;20.51;59.20;99755.81;7285412;19;152517;-52
2021/10/05 10:00:13;;;;;;;;;;;;;;;20.47;59.00;99750.06;7283859;19;153969;-52
2021/10/05 10:02:40;;;;;;;;;;;;;;;20.49;59.43;99755.34;7283122;19;154444;-52
2021/10/05 10:05:10;;;;;;;;;;;;;;;20.47;59.33;99763.25;7295044;19;151718;-52
2021/10/05 10:07:37;;;;;;;;;;;;;;;20.43;59.02;99771.53;7281016;19;153459;-52
2021/10/05 10:10:07;;;;;;;;;;;;;;;20.40;58.50;99775.81;7287324;19;151759;-52
2021/10/05 10:12:35;;;;;;;;;;;;;;;20.39;59.03;99776.19;7286076;19;152106;-51
2021/10/05 10:15:03;;;;;;;;;;;;;;;20.39;58.69;99778.97;7285655;19;154372;-52
2021/10/05 10:17:31;;;;;;;;;;;;;;;20.37;59.06;99784.94;7286527;19;152046;-52
2021/10/05 10:19:58;;;;;;;;;;;;;;;20.35;58.81;99780.81;7283501;19;152549;-52
2021/10/05 10:22:25;;;;;;;;;;;;;;;20.32;58.56;99776.69;7279374;19;152177;-51
2021/10/05 10:24:54;;;;;;;;;;;;;;;20.31;58.91;99777.84;7287233;19;152132;-52
2021/10/05 10:27:22;;;;;;;;;;;;;;;20.31;58.60;99777.84;7290124;19;153514;-52
2021/10/05 10:30:04;;;;;;;;;;;;;;;20.34;58.47;99784.78;7284094;19;152210;-52
2021/10/05 10:32:40;;;;;;;;;;;;;;;20.29;58.94;99782.13;7283988;19;152918;-52
2021/10/05 10:35:08;;;;;;;;;;;;;;;20.26;58.88;99777.97;7283740;19;154500;-52
2021/10/05 10:37:38;;;;;;;;;;;;;;;20.27;58.32;99784.44;7285583;19;151557;-51
2021/10/05 10:40:05;;;;;;;;;;;;;;;20.26;58.61;99792.00;7286559;19;152800;-52
2021/10/05 10:42:32;;;;;;;;;;;;;;;20.24;58.82;99787.91;7284092;19;153303;-52
2021/10/05 10:45:09;;;;;;;;;;;;;;;20.20;58.27;99786.94;7283878;19;152238;-52
2021/10/05 10:47:38;;;;;;;;;;;;;;;20.22;58.36;99793.84;7284026;19;151632;-51
2021/10/05 10:50:09;;;;;;;;;;;;;;;20.25;58.42;99797.97;7292041;19;154159;-52
2021/10/05 10:52:37;;;;;;;;;;;;;;;20.18;58.56;99806.88;7283059;19;153486;-52
2021/10/05 10:55:06;;;;;;;;;;;;;;;20.20;58.60;99800.97;7282964;19;154321;-52
2021/10/05 10:57:34;;;;;;;;;;;;;;;20.17;58.73;99813.66;7282906;19;152158;-52
2021/10/05 11:00:04;;;;;;;;;;;;;;;20.19;58.53;99814.16;7282744;19;152830;-52
2021/10/05 11:02:39;;;;;;;;;;;;;;;20.19;58.61;99822.56;7283380;19;153933;-52
2021/10/05 11:05:07;;;;;;;;;;;;;;;20.18;58.25;99822.88;7285585;19;151806;-52
2021/10/05 11:07:34;;;;;;;;;;;;;;;20.18;58.58;99820.09;7284079;19;152695;-52
2021/10/05 11:10:23;;;;;;;;;;;;;;;20.15;58.51;99824.41;7281754;19;151913;-53
2021/10/05 11:12:52;;;;;;;;;;;;;;;20.16;58.48;99826.03;7292217;19;151695;-53
2021/10/05 11:15:22;;;;;;;;;;;;;;;20.16;58.34;99826.03;7282103;19;153599;-51
2021/10/05 11:17:50;;;;;;;;;;;;;;;20.14;58.53;99824.72;7285237;19;151955;-52
2021/10/05 11:20:17;;;;;;;;;;;;;;;20.17;58.35;99815.66;7281536;19;153243;-52
2021/10/05 11:22:44;;;;;;;;;;;;;;;20.18;58.39;99828.50;7278805;19;153936;-52
2021/10/05 11:25:17;;;;;;;;;;;;;;;20.14;58.70;99822.75;7285178;19;151831;-51
2021/10/05 11:27:44;;;;;;;;;;;;;;;20.17;58.35;99818.47;7282121;19;152271;-50
2021/10/05 11:30:11;;;;;;;;;;;;;;;20.15;58.42;99830.00;7283259;19;153745;-51
2021/10/05 11:32:38;;;;;;;;;;;;;;;20.10;58.37;99823.75;7284036;19;151593;-51
2021/10/05 11:35:08;;;;;;;;;;;;;;;20.11;58.61;99833.81;7291041;19;153244;-50
2021/10/05 11:37:35;;;;;;;;;;;;;;;20.11;58.77;99837.44;7283942;19;151859;-51
2021/10/05 11:40:02;;;;;;;;;;;;;;;20.06;58.49;99850.81;7283770;19;151838;-51
2021/10/05 11:42:29;;;;;;;;;;;;;;;20.06;58.19;99843.22;7288749;19;153135;-51
2021/10/05 11:44:59;;;;;;;;;;;;;;;20.03;58.66;99857.91;7290825;19;151830;-50
2021/10/05 11:47:26;;;;;;;;;;;;;;;20.04;58.40;99862.34;7289919;19;152789;-51
2021/10/05 11:49:57;;;;;;;;;;;;;;;20.06;58.64;99860.03;7287406;19;153403;-50
2021/10/05 11:52:26;;;;;;;;;;;;;;;20.02;58.55;99858.22;7289068;19;151900;-51
2021/10/05 11:54:54;;;;;;;;;;;;;;;20.04;58.93;99853.09;7296699;19;153073;-50
2021/10/05 11:57:25;;;;;;;;;;;;;;;20.07;58.71;99850.47;7289342;19;152053;-51
2021/10/05 11:59:55;;;;;;;;;;;;;;;20.08;58.80;99845.69;7287531;19;152684;-51
2021/10/05 12:02:26;;;;;;;;;;;;;;;20.07;58.74;99852.44;7285297;19;153054;-51
2021/10/05 12:04:54;;;;;;;;;;;;;;;20.06;59.09;99862.00;7289399;19;151727;-51
2021/10/05 12:07:30;;;;;;;;;;;;;;;20.04;58.69;99862.34;7289428;19;153452;-51
2021/10/05 12:09:57;;;;;;;;;;;;;;;20.05;59.05;99865.97;7288572;19;153452;-51
2021/10/05 12:12:26;;;;;;;;;;;;;;;20.04;58.83;99864.31;7289185;19;152228;-51
2021/10/05 12:14:54;;;;;;;;;;;;;;;20.04;58.79;99865.13;7290051;19;153199;-51
2021/10/05 12:17:21;;;;;;;;;;;;;;;20.02;58.94;99870.28;7294940;19;153493;-51
2021/10/05 12:19:51;;;;;;;;;;;;;;;20.02;58.90;99887.09;7287838;19;153457;-51
2021/10/05 12:22:21;;;;;;;;;;;;;;;19.96;59.18;99889.25;7285470;19;153420;-51
2021/10/05 12:24:50;;;;;;;;;;;;;;;20.02;58.90;99894.69;7287216;19;152224;-51
2021/10/05 12:27:19;;;;;;;;;;;;;;;20.01;59.31;99901.44;7286535;19;153274;-51
2021/10/05 12:29:48;;;;;;;;;;;;;;;20.01;59.25;99893.03;7287006;19;153345;-51
2021/10/05 12:32:15;;;;;;;;;;;;;;;20.01;59.08;99909.84;7289347;19;151990;-51
2021/10/05 12:34:49;;;;;;;;;;;;;;;19.97;59.08;99912.50;7290215;19;152803;-51
2021/10/05 12:37:18;;;;;;;;;;;;;;;19.98;58.88;99911.34;7287548;19;152232;-50
2021/10/05 12:40:02;;;;;;;;;;;;;;;19.95;59.11;99918.41;7294039;19;152011;-51